Sidnaw, MI

6:25 AM EDT on May 26, 2015 (GMT -0400)
Ford | | Change Station
CLOSE
Current Station
Airport
Location: Iron Mountain,
Elevation: 1181 ft
Nearby Weather Stations

Elev 1181 ft 45.82 °N, 88.11 °W | Updated 8 minutes ago

Fog
Fog
56 °F
Feels Like 56 °F
N
0
Wind Variable Wind from North

Today
High -- | Low -- °F
--% Chance of Precip.
Yesterday
High -- | Low -- °F
Precip. -- in
6:10 AM 9:34 PM
First Quarter, 57% visible
Pressure 29.81 in
Visibility 0.5 miles
Clouds
Dew Point 55 °F
Humidity 97%
Rainfall 0.05 in
Snow Depth Not available.
UV Not available.
Pollen .90 out of 12
Air Quality Not available.
Flu Activity Sporadic
SPECI KIMT 261017Z AUTO 00000KT 1/2SM FG VV002 13/13 A2981 RMK AO2 T01330128 TSNO

More Conditions Fewer Conditions

Pressure 29.81 in
Visibility 0.5 miles
Clouds
Dew Point 55 °F
Humidity 97%
Rainfall 0.05 in
Snow Depth Not available.
UV Not available.
Pollen .90 out of 12
Air Quality Not available.
Flu Activity Sporadic
SPECI KIMT 261017Z AUTO 00000KT 1/2SM FG VV002 13/13 A2981 RMK AO2 T01330128 TSNO

More Conditions Fewer Conditions

10-Day Weather Forecast

Almanac

Astronomy

May. 26, 2015 Rise Set
Actual Time
Civil Twilight
Nautical Twilight
Astronomical Twilight
Moon
Length of Visible Light
Length of Day
Tomorrow will be .
, % of the Moon is Illuminated

Today's Extremes

State Highs State Lows

Community

WunderPhotos

Upload Photos

1,824,305 photos uploaded!

WunderBlogs® & News

Nearby

Air Quality

  Air Quality AQ Index Pollutant
Not available.

Snow Depth

Station Depth Elevation

Earthquake Activity

City Distance Mag. Time & Date
Minimum magnitude displayed is 2.5.

Coastal Water Temperatures

Place Temperature

Stations

Nearby Weather Stations

Station Location Temp. Windchill Dew Point Humidity Wind Precip. Elev Updated Type